SWA4231 KSJC-KBWI
Flight info
| Callsign | SWA4231 |
|---|---|
| Flight time | N/A |
| Altitude | 37000 |
| Route | N0450F370 LOUPE1 SYRAH Q128 JSICA DCT KITTN Q164 ROCCY DCT KD48S DCT DAAYE DCT KINGO DCT ZAROS DCT KIRKE DCT GATTY DCT ULMAN/N0439F390 DCT DELMA DCT ENL DCT JUDDI J134 FLM J24 HVQ DCT CACYE RAVNN8 |
| Aircraft | B38M/M-SDE1FGHILORVWXY/HB1 |
Departure
| Time | 2026-05-04 02:38 |
|---|---|
| Airport | Norman Y. Mineta San Jose International Airport (KSJC) |
Arrival
| Time | N/A |
|---|---|
| Airport | Baltimore/Washington International Thurgood Marshall Airport (KBWI) |
| Time | Latitude | Longitude | Altitude | Speed | Heading |
|---|---|---|---|---|---|
| 2026-05-04 02:04 | 37.36789 | -121.92840 | 73 ft | 0 kts | 49° |
| 2026-05-04 02:24 | 37.36784 | -121.92846 | 73 ft | 2 kts | 49° |
| 2026-05-04 02:25 | 37.36773 | -121.92863 | 73 ft | 3 kts | 49° |
| 2026-05-04 02:25 | 37.36761 | -121.92882 | 73 ft | 3 kts | 58° |
| 2026-05-04 02:25 | 37.36753 | -121.92906 | 73 ft | 3 kts | 81° |
| 2026-05-04 02:25 | 37.36754 | -121.92932 | 73 ft | 3 kts | 103° |
| 2026-05-04 02:26 | 37.36762 | -121.92956 | 73 ft | 3 kts | 122° |
| 2026-05-04 02:26 | 37.36763 | -121.92958 | 73 ft | 0 kts | 123° |
| 2026-05-04 02:29 | 37.36760 | -121.92951 | 73 ft | 2 kts | 123° |
| 2026-05-04 02:30 | 37.36738 | -121.92923 | 73 ft | 7 kts | 136° |
| 2026-05-04 02:30 | 37.36694 | -121.92870 | 73 ft | 11 kts | 138° |
| 2026-05-04 02:30 | 37.36626 | -121.92799 | 73 ft | 15 kts | 140° |
| 2026-05-04 02:30 | 37.36544 | -121.92710 | 73 ft | 14 kts | 139° |
| 2026-05-04 02:31 | 37.36490 | -121.92693 | 73 ft | 7 kts | 221° |
| 2026-05-04 02:31 | 37.36447 | -121.92728 | 73 ft | 9 kts | 204° |
| 2026-05-04 02:31 | 37.36384 | -121.92760 | 73 ft | 11 kts | 200° |
| 2026-05-04 02:31 | 37.36327 | -121.92743 | 73 ft | 9 kts | 154° |
| 2026-05-04 02:32 | 37.36274 | -121.92689 | 73 ft | 11 kts | 134° |
| 2026-05-04 02:32 | 37.36243 | -121.92601 | 73 ft | 12 kts | 63° |
| 2026-05-04 02:32 | 37.36289 | -121.92506 | 73 ft | 14 kts | 65° |
| 2026-05-04 02:32 | 37.36263 | -121.92403 | 73 ft | 14 kts | 135° |
| 2026-05-04 02:33 | 37.36178 | -121.92311 | 73 ft | 18 kts | 139° |
| 2026-05-04 02:33 | 37.36077 | -121.92202 | 73 ft | 20 kts | 140° |
| 2026-05-04 02:33 | 37.35967 | -121.92080 | 73 ft | 22 kts | 137° |
| 2026-05-04 02:33 | 37.35848 | -121.91948 | 73 ft | 24 kts | 139° |
| 2026-05-04 02:34 | 37.35718 | -121.91806 | 73 ft | 26 kts | 139° |
| 2026-05-04 02:34 | 37.35578 | -121.91654 | 73 ft | 27 kts | 138° |
| 2026-05-04 02:34 | 37.35450 | -121.91514 | 73 ft | 18 kts | 137° |
| 2026-05-04 02:34 | 37.35380 | -121.91434 | 73 ft | 13 kts | 146° |
| 2026-05-04 02:35 | 37.35301 | -121.91455 | 73 ft | 13 kts | 225° |
| 2026-05-04 02:35 | 37.35287 | -121.91473 | 73 ft | 0 kts | 228° |
| 2026-05-04 02:36 | 37.35279 | -121.91484 | 73 ft | 4 kts | 228° |
| 2026-05-04 02:36 | 37.35254 | -121.91519 | 73 ft | 7 kts | 228° |
| 2026-05-04 02:37 | 37.35250 | -121.91545 | 73 ft | 3 kts | 293° |
| 2026-05-04 02:37 | 37.35261 | -121.91562 | 73 ft | 0 kts | 316° |
| 2026-05-04 02:37 | 37.35265 | -121.91567 | 73 ft | 6 kts | 316° |
| 2026-05-04 02:38 | 37.35452 | -121.91778 | 74 ft | 69 kts | 319° |
| 2026-05-04 02:38 | 37.35980 | -121.92353 | 74 ft | 130 kts | 320° |
| 2026-05-04 02:38 | 37.36786 | -121.93247 | 140 ft | 173 kts | 316° |
| 2026-05-04 02:38 | 37.37727 | -121.94245 | 798 ft | 177 kts | 316° |
| 2026-05-04 02:39 | 37.38663 | -121.95257 | 1481 ft | 184 kts | 316° |
| 2026-05-04 02:39 | 37.39640 | -121.96347 | 2079 ft | 194 kts | 315° |
| 2026-05-04 02:39 | 37.40876 | -121.97288 | 2444 ft | 222 kts | 336° |
| 2026-05-04 02:39 | 37.42448 | -121.97392 | 2961 ft | 239 kts | 9° |
| 2026-05-04 02:40 | 37.43886 | -121.96312 | 3510 ft | 247 kts | 46° |
| 2026-05-04 02:40 | 37.44566 | -121.94372 | 4189 ft | 242 kts | 85° |
| 2026-05-04 02:40 | 37.44224 | -121.92365 | 4823 ft | 235 kts | 118° |
| 2026-05-04 02:40 | 37.43176 | -121.90862 | 4972 ft | 230 kts | 136° |
| 2026-05-04 02:41 | 37.42078 | -121.89420 | 4995 ft | 227 kts | 136° |
| 2026-05-04 02:41 | 37.40993 | -121.87982 | 5007 ft | 227 kts | 136° |
| 2026-05-04 02:41 | 37.39905 | -121.86532 | 5008 ft | 227 kts | 135° |
| 2026-05-04 02:41 | 37.38823 | -121.85088 | 5010 ft | 227 kts | 135° |
| 2026-05-04 02:42 | 37.38106 | -121.84128 | 5009 ft | 227 kts | 135° |
| 2026-05-04 02:42 | 37.36668 | -121.82204 | 5009 ft | 227 kts | 135° |
| 2026-05-04 02:42 | 37.35582 | -121.80757 | 5010 ft | 228 kts | 137° |
| 2026-05-04 02:42 | 37.34770 | -121.79878 | 5016 ft | 238 kts | 142° |
| 2026-05-04 02:43 | 37.33434 | -121.78595 | 5014 ft | 244 kts | 144° |
| 2026-05-04 02:43 | 37.32064 | -121.77317 | 5007 ft | 246 kts | 147° |
| 2026-05-04 02:43 | 37.30459 | -121.76618 | 4998 ft | 247 kts | 172° |
| 2026-05-04 02:43 | 37.28761 | -121.76963 | 5018 ft | 251 kts | 197° |
| 2026-05-04 02:44 | 37.27295 | -121.78115 | 5011 ft | 256 kts | 217° |
| 2026-05-04 02:44 | 37.26232 | -121.79924 | 5008 ft | 263 kts | 238° |
| 2026-05-04 02:44 | 37.25792 | -121.82209 | 5006 ft | 272 kts | 262° |
| 2026-05-04 02:44 | 37.26142 | -121.84560 | 5009 ft | 280 kts | 288° |
| 2026-05-04 02:45 | 37.27247 | -121.86544 | 5010 ft | 285 kts | 313° |
| 2026-05-04 02:45 | 37.28866 | -121.87939 | 5025 ft | 285 kts | 327° |
| 2026-05-04 02:45 | 37.30576 | -121.89230 | 5010 ft | 284 kts | 328° |
| 2026-05-04 02:45 | 37.32275 | -121.90514 | 5009 ft | 284 kts | 328° |
| 2026-05-04 02:46 | 37.33965 | -121.91797 | 5010 ft | 284 kts | 328° |
| 2026-05-04 02:46 | 37.35663 | -121.93089 | 5008 ft | 284 kts | 327° |
| 2026-05-04 02:46 | 37.37406 | -121.94184 | 4982 ft | 285 kts | 342° |
| 2026-05-04 02:46 | 37.39363 | -121.94572 | 5249 ft | 287 kts | 355° |
| 2026-05-04 02:47 | 37.41371 | -121.94782 | 5925 ft | 288 kts | 356° |
| 2026-05-04 02:47 | 37.43375 | -121.94969 | 6636 ft | 290 kts | 357° |
| 2026-05-04 02:47 | 37.45398 | -121.95151 | 7308 ft | 293 kts | 357° |
| 2026-05-04 02:47 | 37.47450 | -121.95333 | 7995 ft | 297 kts | 357° |
| 2026-05-04 02:48 | 37.49528 | -121.95516 | 8788 ft | 300 kts | 357° |
| 2026-05-04 02:48 | 37.51613 | -121.95698 | 9606 ft | 303 kts | 357° |
| 2026-05-04 02:48 | 37.53739 | -121.95884 | 10349 ft | 310 kts | 358° |
| 2026-05-04 02:48 | 37.55949 | -121.96077 | 10795 ft | 326 kts | 358° |
| 2026-05-04 02:49 | 37.58226 | -121.96130 | 11234 ft | 337 kts | 8° |
| 2026-05-04 02:49 | 37.60462 | -121.95291 | 11935 ft | 335 kts | 27° |
| 2026-05-04 02:49 | 37.62363 | -121.93613 | 12636 ft | 332 kts | 46° |
| 2026-05-04 02:49 | 37.63774 | -121.91329 | 13322 ft | 331 kts | 59° |
| 2026-05-04 02:50 | 37.64980 | -121.88832 | 13987 ft | 334 kts | 62° |
| 2026-05-04 02:50 | 37.66152 | -121.86284 | 14642 ft | 336 kts | 63° |
| 2026-05-04 02:50 | 37.67308 | -121.83715 | 15270 ft | 339 kts | 63° |
| 2026-05-04 02:50 | 37.68466 | -121.81107 | 15879 ft | 341 kts | 63° |
| 2026-05-04 02:51 | 37.69610 | -121.78507 | 16459 ft | 344 kts | 64° |
| 2026-05-04 02:51 | 37.70775 | -121.75848 | 17031 ft | 347 kts | 64° |
| 2026-05-04 02:51 | 37.71945 | -121.73169 | 17613 ft | 348 kts | 64° |
| 2026-05-04 02:51 | 37.73120 | -121.70475 | 18168 ft | 350 kts | 64° |
| 2026-05-04 02:52 | 37.74292 | -121.67784 | 18705 ft | 351 kts | 64° |
| 2026-05-04 02:52 | 37.75477 | -121.65062 | 19242 ft | 353 kts | 64° |
| 2026-05-04 02:52 | 37.76662 | -121.62337 | 19772 ft | 353 kts | 64° |
| 2026-05-04 02:52 | 37.77835 | -121.59637 | 20299 ft | 354 kts | 64° |
| 2026-05-04 02:53 | 37.79018 | -121.56911 | 20785 ft | 355 kts | 64° |
| 2026-05-04 02:53 | 37.80213 | -121.54158 | 21258 ft | 356 kts | 64° |
| 2026-05-04 02:53 | 37.81407 | -121.51403 | 21716 ft | 358 kts | 64° |
| 2026-05-04 02:53 | 37.82604 | -121.48640 | 22162 ft | 359 kts | 64° |
| 2026-05-04 02:54 | 37.83794 | -121.45891 | 22584 ft | 361 kts | 64° |
| 2026-05-04 02:54 | 37.85005 | -121.43093 | 22994 ft | 362 kts | 64° |
| 2026-05-04 02:54 | 37.86218 | -121.40285 | 23388 ft | 364 kts | 64° |
| 2026-05-04 02:54 | 37.87438 | -121.37460 | 23767 ft | 366 kts | 64° |
| 2026-05-04 02:55 | 37.89891 | -121.31765 | 24428 ft | 372 kts | 64° |
| 2026-05-04 02:55 | 37.91142 | -121.28859 | 24727 ft | 376 kts | 65° |
| 2026-05-04 02:55 | 37.92386 | -121.25967 | 25006 ft | 379 kts | 65° |
| 2026-05-04 02:56 | 37.93653 | -121.23020 | 25276 ft | 383 kts | 65° |
| 2026-05-04 02:56 | 37.94939 | -121.20027 | 25534 ft | 387 kts | 66° |
| 2026-05-04 02:56 | 37.96237 | -121.17002 | 25782 ft | 391 kts | 66° |
| 2026-05-04 02:56 | 37.97545 | -121.13952 | 26019 ft | 396 kts | 66° |
| 2026-05-04 02:57 | 37.98785 | -121.10825 | 26199 ft | 396 kts | 74° |
| 2026-05-04 02:57 | 37.99478 | -121.07461 | 26441 ft | 395 kts | 82° |
| 2026-05-04 02:57 | 38.00051 | -121.04028 | 26655 ft | 399 kts | 83° |
| 2026-05-04 02:57 | 38.00602 | -121.00608 | 26879 ft | 403 kts | 83° |
| 2026-05-04 02:58 | 38.01154 | -120.97097 | 27097 ft | 406 kts | 83° |
| 2026-05-04 02:58 | 38.01702 | -120.93571 | 27323 ft | 410 kts | 84° |
| 2026-05-04 02:58 | 38.02252 | -120.90014 | 27560 ft | 413 kts | 84° |
| 2026-05-04 02:58 | 38.02804 | -120.86430 | 27760 ft | 416 kts | 84° |
| 2026-05-04 02:59 | 38.03363 | -120.82796 | 27965 ft | 420 kts | 84° |
| 2026-05-04 02:59 | 38.03924 | -120.79137 | 28164 ft | 424 kts | 83° |
| 2026-05-04 02:59 | 38.04481 | -120.75496 | 28357 ft | 427 kts | 83° |
| 2026-05-04 02:59 | 38.05051 | -120.71768 | 28550 ft | 431 kts | 83° |
| 2026-05-04 03:00 | 38.05623 | -120.68012 | 28682 ft | 436 kts | 83° |
| 2026-05-04 03:00 | 38.06201 | -120.64207 | 28834 ft | 440 kts | 83° |
| 2026-05-04 03:00 | 38.06781 | -120.60383 | 29028 ft | 443 kts | 83° |
| 2026-05-04 03:00 | 38.07365 | -120.56522 | 29213 ft | 447 kts | 83° |
| 2026-05-04 03:01 | 38.07953 | -120.52626 | 29401 ft | 450 kts | 83° |
| 2026-05-04 03:01 | 38.08543 | -120.48711 | 29584 ft | 453 kts | 82° |
| 2026-05-04 03:01 | 38.09127 | -120.44827 | 29763 ft | 456 kts | 82° |
| 2026-05-04 03:01 | 38.09723 | -120.40851 | 29942 ft | 459 kts | 82° |
| 2026-05-04 03:02 | 38.10319 | -120.36860 | 30120 ft | 462 kts | 82° |
| 2026-05-04 03:02 | 38.10919 | -120.32841 | 30298 ft | 464 kts | 82° |
| 2026-05-04 03:02 | 38.11521 | -120.28792 | 30477 ft | 467 kts | 81° |
| 2026-05-04 03:02 | 38.12125 | -120.24722 | 30680 ft | 469 kts | 81° |
| 2026-05-04 03:03 | 38.12720 | -120.20699 | 30947 ft | 469 kts | 81° |
| 2026-05-04 03:03 | 38.13321 | -120.16627 | 31189 ft | 470 kts | 82° |
| 2026-05-04 03:03 | 38.13923 | -120.12541 | 31430 ft | 470 kts | 82° |
| 2026-05-04 03:03 | 38.14526 | -120.08438 | 31668 ft | 471 kts | 82° |
| 2026-05-04 03:04 | 38.15125 | -120.04350 | 31900 ft | 472 kts | 82° |
| 2026-05-04 03:04 | 38.15725 | -120.00245 | 32128 ft | 472 kts | 82° |
| 2026-05-04 03:04 | 38.16315 | -119.96201 | 32556 ft | 466 kts | 82° |
| 2026-05-04 03:04 | 38.16898 | -119.92184 | 33004 ft | 460 kts | 82° |
| 2026-05-04 03:05 | 38.17476 | -119.88204 | 33403 ft | 455 kts | 82° |
| 2026-05-04 03:05 | 38.18048 | -119.84254 | 33598 ft | 455 kts | 83° |
| 2026-05-04 03:05 | 38.18623 | -119.80273 | 33711 ft | 457 kts | 83° |
| 2026-05-04 03:05 | 38.19189 | -119.76340 | 33823 ft | 459 kts | 83° |
| 2026-05-04 03:06 | 38.19771 | -119.72289 | 33936 ft | 461 kts | 83° |
| 2026-05-04 03:06 | 38.20348 | -119.68266 | 34045 ft | 463 kts | 83° |
| 2026-05-04 03:06 | 38.20925 | -119.64226 | 34151 ft | 464 kts | 83° |
| 2026-05-04 03:06 | 38.21503 | -119.60176 | 34256 ft | 466 kts | 83° |
| 2026-05-04 03:07 | 38.22081 | -119.56110 | 34361 ft | 468 kts | 83° |
| 2026-05-04 03:07 | 38.22659 | -119.52031 | 34464 ft | 470 kts | 83° |
| 2026-05-04 03:07 | 38.23239 | -119.47931 | 34566 ft | 472 kts | 83° |
| 2026-05-04 03:07 | 38.23813 | -119.43862 | 34669 ft | 474 kts | 83° |
| 2026-05-04 03:08 | 38.24395 | -119.39727 | 34796 ft | 475 kts | 83° |
| 2026-05-04 03:08 | 38.24979 | -119.35569 | 34933 ft | 476 kts | 83° |
| 2026-05-04 03:08 | 38.25561 | -119.31410 | 35055 ft | 477 kts | 83° |
| 2026-05-04 03:08 | 38.26136 | -119.27291 | 35177 ft | 479 kts | 83° |
| 2026-05-04 03:09 | 38.26718 | -119.23115 | 35298 ft | 480 kts | 83° |
| 2026-05-04 03:09 | 38.27302 | -119.18905 | 35420 ft | 481 kts | 83° |
| 2026-05-04 03:09 | 38.27885 | -119.14695 | 35540 ft | 483 kts | 83° |
| 2026-05-04 03:09 | 38.28460 | -119.10529 | 35658 ft | 484 kts | 83° |
| 2026-05-04 03:10 | 38.29044 | -119.06290 | 35779 ft | 485 kts | 83° |
| 2026-05-04 03:10 | 38.29626 | -119.02052 | 35900 ft | 487 kts | 83° |
| 2026-05-04 03:10 | 38.30210 | -118.97793 | 36017 ft | 488 kts | 83° |
| 2026-05-04 03:10 | 38.30793 | -118.93522 | 36143 ft | 489 kts | 83° |
| 2026-05-04 03:11 | 38.31376 | -118.89241 | 36283 ft | 490 kts | 82° |
| 2026-05-04 03:11 | 38.32541 | -118.80643 | 36421 ft | 494 kts | 82° |
| 2026-05-04 03:11 | 38.33119 | -118.76367 | 36582 ft | 494 kts | 82° |
| 2026-05-04 03:12 | 38.33700 | -118.72048 | 36747 ft | 494 kts | 82° |
| 2026-05-04 03:12 | 38.34282 | -118.67715 | 36950 ft | 493 kts | 82° |
| 2026-05-04 03:12 | 38.34860 | -118.63395 | 36991 ft | 495 kts | 82° |
| 2026-05-04 03:13 | 38.36012 | -118.54752 | 36990 ft | 494 kts | 82° |
| 2026-05-04 03:13 | 38.37150 | -118.46160 | 36989 ft | 494 kts | 82° |
| 2026-05-04 03:14 | 38.38290 | -118.37504 | 36960 ft | 495 kts | 82° |
| 2026-05-04 03:14 | 38.39424 | -118.28844 | 36963 ft | 495 kts | 82° |
| 2026-05-04 03:15 | 38.40554 | -118.20161 | 36964 ft | 496 kts | 82° |
| 2026-05-04 03:15 | 38.41673 | -118.11512 | 36964 ft | 497 kts | 83° |
| 2026-05-04 03:16 | 38.42796 | -118.02784 | 36964 ft | 498 kts | 83° |
| 2026-05-04 03:16 | 38.43913 | -117.94045 | 36964 ft | 500 kts | 83° |
| 2026-05-04 03:17 | 38.45024 | -117.85303 | 36966 ft | 503 kts | 82° |
| 2026-05-04 03:17 | 38.46142 | -117.76446 | 36965 ft | 506 kts | 82° |
| 2026-05-04 03:18 | 38.47257 | -117.67563 | 36965 ft | 507 kts | 82° |
| 2026-05-04 03:18 | 38.48372 | -117.58637 | 36965 ft | 509 kts | 82° |
| 2026-05-04 03:19 | 38.49480 | -117.49707 | 36965 ft | 510 kts | 82° |
| 2026-05-04 03:19 | 38.50578 | -117.40812 | 36965 ft | 511 kts | 82° |
| 2026-05-04 03:20 | 38.51677 | -117.31845 | 36955 ft | 511 kts | 83° |
| 2026-05-04 03:20 | 38.51846 | -117.27348 | 36955 ft | 506 kts | 95° |
| 2026-05-04 03:20 | 38.51592 | -117.22849 | 36946 ft | 506 kts | 98° |
| 2026-05-04 03:21 | 38.50973 | -117.13913 | 36951 ft | 505 kts | 98° |
| 2026-05-04 03:21 | 38.50315 | -117.04994 | 36952 ft | 505 kts | 98° |
| 2026-05-04 03:22 | 38.49647 | -116.96060 | 36952 ft | 505 kts | 98° |
| 2026-05-04 03:22 | 38.48972 | -116.87120 | 36952 ft | 505 kts | 98° |
| 2026-05-04 03:23 | 38.48295 | -116.78241 | 36952 ft | 505 kts | 99° |
| 2026-05-04 03:23 | 38.47605 | -116.69292 | 36952 ft | 505 kts | 99° |
| 2026-05-04 03:24 | 38.46911 | -116.60372 | 36952 ft | 505 kts | 99° |
| 2026-05-04 03:24 | 38.46209 | -116.51437 | 36881 ft | 505 kts | 99° |
| 2026-05-04 03:25 | 38.45507 | -116.42592 | 36807 ft | 505 kts | 99° |
| 2026-05-04 03:25 | 38.44792 | -116.33672 | 36813 ft | 505 kts | 99° |
| 2026-05-04 03:26 | 38.44072 | -116.24774 | 36818 ft | 505 kts | 99° |
| 2026-05-04 03:26 | 38.43342 | -116.15842 | 36821 ft | 504 kts | 99° |
| 2026-05-04 03:27 | 38.42615 | -116.07015 | 36824 ft | 504 kts | 99° |
| 2026-05-04 03:27 | 38.41870 | -115.98067 | 36827 ft | 503 kts | 99° |
| 2026-05-04 03:28 | 38.41128 | -115.89236 | 36830 ft | 503 kts | 99° |
| 2026-05-04 03:28 | 38.40377 | -115.80376 | 36836 ft | 503 kts | 99° |
| 2026-05-04 03:29 | 38.39619 | -115.71517 | 36842 ft | 502 kts | 99° |
| 2026-05-04 03:29 | 38.38983 | -115.64140 | 36844 ft | 502 kts | 100° |
| 2026-05-04 03:30 | 38.38208 | -115.55231 | 36850 ft | 509 kts | 100° |
| 2026-05-04 03:30 | 38.37423 | -115.46283 | 36851 ft | 512 kts | 100° |
| 2026-05-04 03:31 | 38.36625 | -115.37262 | 36852 ft | 512 kts | 100° |
| 2026-05-04 03:31 | 38.35817 | -115.28216 | 36852 ft | 513 kts | 100° |
| 2026-05-04 03:32 | 38.35003 | -115.19181 | 36852 ft | 514 kts | 100° |
| 2026-05-04 03:32 | 38.34186 | -115.10175 | 36851 ft | 515 kts | 101° |
| 2026-05-04 03:33 | 38.33358 | -115.01108 | 36876 ft | 512 kts | 101° |
| 2026-05-04 03:33 | 38.32174 | -114.92206 | 36865 ft | 511 kts | 107° |
| 2026-05-04 03:34 | 38.30751 | -114.83319 | 36866 ft | 515 kts | 106° |
| 2026-05-04 03:34 | 38.29346 | -114.74357 | 36863 ft | 516 kts | 106° |
| 2026-05-04 03:35 | 38.27935 | -114.65385 | 36860 ft | 517 kts | 106° |
| 2026-05-04 03:35 | 38.26509 | -114.56367 | 36889 ft | 520 kts | 106° |
| 2026-05-04 03:36 | 38.25082 | -114.47396 | 36883 ft | 521 kts | 107° |
| 2026-05-04 03:36 | 38.23636 | -114.38344 | 36882 ft | 521 kts | 107° |
| 2026-05-04 03:37 | 38.22180 | -114.29278 | 36908 ft | 525 kts | 107° |
| 2026-05-04 03:37 | 38.20708 | -114.20165 | 36906 ft | 531 kts | 107° |
| 2026-05-04 03:38 | 38.19219 | -114.10987 | 36912 ft | 530 kts | 108° |
| 2026-05-04 03:38 | 38.17718 | -114.01787 | 36920 ft | 530 kts | 108° |
| 2026-05-04 03:39 | 38.16215 | -113.92624 | 36928 ft | 529 kts | 108° |
| 2026-05-04 03:39 | 38.14715 | -113.83521 | 36936 ft | 529 kts | 108° |
| 2026-05-04 03:40 | 38.13199 | -113.74373 | 36944 ft | 528 kts | 108° |
| 2026-05-04 03:40 | 38.11680 | -113.65248 | 36951 ft | 528 kts | 108° |
| 2026-05-04 03:41 | 38.10151 | -113.56112 | 36958 ft | 527 kts | 108° |
| 2026-05-04 03:41 | 38.08629 | -113.47066 | 36964 ft | 527 kts | 108° |
| 2026-05-04 03:42 | 38.07091 | -113.37967 | 36968 ft | 527 kts | 108° |
| 2026-05-04 03:42 | 38.05541 | -113.28846 | 36986 ft | 529 kts | 108° |
| 2026-05-04 03:43 | 38.03977 | -113.19682 | 36998 ft | 531 kts | 108° |
| 2026-05-04 03:43 | 38.02405 | -113.10521 | 37001 ft | 532 kts | 108° |
| 2026-05-04 03:44 | 38.00820 | -113.01329 | 37005 ft | 533 kts | 108° |
| 2026-05-04 03:44 | 37.99239 | -112.92207 | 37010 ft | 534 kts | 108° |
| 2026-05-04 03:45 | 37.97635 | -112.82996 | 37016 ft | 535 kts | 108° |
| 2026-05-04 03:45 | 37.96020 | -112.73766 | 37025 ft | 536 kts | 109° |
| 2026-05-04 03:46 | 37.94396 | -112.64533 | 37040 ft | 538 kts | 109° |
| 2026-05-04 03:46 | 37.92753 | -112.55234 | 37088 ft | 541 kts | 109° |
| 2026-05-04 03:47 | 37.91104 | -112.45948 | 37114 ft | 546 kts | 108° |
| 2026-05-04 03:47 | 37.89420 | -112.36512 | 37127 ft | 553 kts | 108° |
| 2026-05-04 03:48 | 37.87704 | -112.26935 | 37131 ft | 558 kts | 108° |
| 2026-05-04 03:48 | 37.85990 | -112.17414 | 37134 ft | 559 kts | 108° |
| 2026-05-04 03:49 | 37.84258 | -112.07834 | 37134 ft | 559 kts | 108° |
| 2026-05-04 03:49 | 37.83132 | -111.98077 | 37140 ft | 566 kts | 91° |
| 2026-05-04 03:50 | 37.83551 | -111.88107 | 37124 ft | 567 kts | 87° |
| 2026-05-04 03:50 | 37.84114 | -111.78165 | 37111 ft | 566 kts | 87° |
| 2026-05-04 03:51 | 37.84686 | -111.68236 | 37092 ft | 564 kts | 87° |
| 2026-05-04 03:51 | 37.85246 | -111.58376 | 37069 ft | 560 kts | 87° |
| 2026-05-04 03:52 | 37.85794 | -111.48605 | 37047 ft | 557 kts | 87° |
| 2026-05-04 03:52 | 37.86332 | -111.38854 | 37027 ft | 554 kts | 87° |
| 2026-05-04 03:53 | 37.86860 | -111.29129 | 37011 ft | 552 kts | 87° |
| 2026-05-04 03:53 | 37.87376 | -111.19502 | 36997 ft | 550 kts | 87° |
| 2026-05-04 03:54 | 37.87884 | -111.09849 | 36986 ft | 548 kts | 87° |
| 2026-05-04 03:54 | 37.88385 | -111.00198 | 36978 ft | 547 kts | 87° |
| 2026-05-04 03:55 | 37.88876 | -110.90595 | 36972 ft | 546 kts | 87° |
| 2026-05-04 03:55 | 37.89355 | -110.81050 | 36968 ft | 546 kts | 87° |
| 2026-05-04 03:56 | 37.89829 | -110.71472 | 36959 ft | 545 kts | 87° |
| 2026-05-04 03:56 | 37.90294 | -110.61889 | 36961 ft | 545 kts | 87° |
| 2026-05-04 03:57 | 37.90753 | -110.52296 | 36975 ft | 545 kts | 87° |
| 2026-05-04 03:57 | 37.91203 | -110.42714 | 37004 ft | 545 kts | 87° |
| 2026-05-04 03:58 | 37.91864 | -110.28330 | 37010 ft | 546 kts | 87° |
| 2026-05-04 03:58 | 37.92293 | -110.18770 | 37013 ft | 546 kts | 87° |
| 2026-05-04 03:59 | 37.92718 | -110.09148 | 37017 ft | 547 kts | 87° |
| 2026-05-04 03:59 | 37.93136 | -109.99488 | 37022 ft | 549 kts | 87° |
| 2026-05-04 04:00 | 37.93547 | -109.89827 | 37027 ft | 550 kts | 87° |
| 2026-05-04 04:00 | 37.93950 | -109.80134 | 37025 ft | 550 kts | 87° |
| 2026-05-04 04:01 | 37.94341 | -109.70560 | 37019 ft | 547 kts | 87° |
| 2026-05-04 04:01 | 37.94727 | -109.60911 | 37023 ft | 549 kts | 87° |
| 2026-05-04 04:02 | 37.95108 | -109.51207 | 37046 ft | 552 kts | 87° |
| 2026-05-04 04:02 | 37.95478 | -109.41548 | 37042 ft | 552 kts | 87° |
| 2026-05-04 04:03 | 37.95844 | -109.31802 | 37042 ft | 552 kts | 87° |
| 2026-05-04 04:03 | 37.96200 | -109.22110 | 37042 ft | 552 kts | 87° |
| 2026-05-04 04:04 | 37.96549 | -109.12394 | 37042 ft | 552 kts | 87° |
| 2026-05-04 04:04 | 37.96889 | -109.02680 | 37098 ft | 554 kts | 87° |
| 2026-05-04 04:05 | 37.97224 | -108.92904 | 37101 ft | 553 kts | 87° |
| 2026-05-04 04:05 | 37.97550 | -108.83160 | 37111 ft | 552 kts | 87° |
| 2026-05-04 04:06 | 37.97866 | -108.73440 | 37123 ft | 551 kts | 87° |
| 2026-05-04 04:06 | 37.98174 | -108.63739 | 37137 ft | 550 kts | 87° |
| 2026-05-04 04:07 | 37.98471 | -108.54140 | 37134 ft | 545 kts | 87° |
| 2026-05-04 04:07 | 37.98760 | -108.44544 | 37148 ft | 544 kts | 88° |
| 2026-05-04 04:08 | 37.99042 | -108.34959 | 37163 ft | 543 kts | 88° |
| 2026-05-04 04:08 | 37.99318 | -108.25386 | 37175 ft | 542 kts | 88° |
| 2026-05-04 04:09 | 37.99583 | -108.15903 | 37198 ft | 541 kts | 88° |
| 2026-05-04 04:09 | 37.99842 | -108.06386 | 37211 ft | 540 kts | 88° |
| 2026-05-04 04:10 | 38.00025 | -107.96832 | 37221 ft | 540 kts | 89° |
| 2026-05-04 04:10 | 38.00149 | -107.87304 | 37224 ft | 540 kts | 89° |
| 2026-05-04 04:11 | 38.00273 | -107.77822 | 37218 ft | 540 kts | 89° |
| 2026-05-04 04:11 | 38.00390 | -107.68303 | 37206 ft | 540 kts | 89° |
| 2026-05-04 04:12 | 38.00500 | -107.58747 | 37195 ft | 540 kts | 89° |
| 2026-05-04 04:12 | 38.00602 | -107.49233 | 37183 ft | 539 kts | 89° |
| 2026-05-04 04:13 | 38.00695 | -107.39798 | 37173 ft | 538 kts | 89° |
| 2026-05-04 04:13 | 38.00782 | -107.30321 | 37170 ft | 537 kts | 89° |
| 2026-05-04 04:14 | 38.00860 | -107.20858 | 37174 ft | 535 kts | 89° |
| 2026-05-04 04:14 | 38.00931 | -107.11408 | 37168 ft | 534 kts | 89° |
| 2026-05-04 04:15 | 38.00994 | -107.01997 | 37163 ft | 534 kts | 89° |
| 2026-05-04 04:15 | 38.01049 | -106.92634 | 37159 ft | 533 kts | 90° |
| 2026-05-04 04:16 | 38.01098 | -106.83213 | 37147 ft | 533 kts | 90° |
| 2026-05-04 04:16 | 38.01138 | -106.73809 | 37136 ft | 532 kts | 90° |
| 2026-05-04 04:17 | 38.01171 | -106.64483 | 37134 ft | 532 kts | 90° |
| 2026-05-04 04:17 | 38.01196 | -106.55096 | 37133 ft | 532 kts | 90° |
| 2026-05-04 04:18 | 38.01212 | -106.47295 | 37132 ft | 532 kts | 90° |
| 2026-05-04 04:18 | 38.01224 | -106.37908 | 37125 ft | 532 kts | 89° |
| 2026-05-04 04:19 | 38.01228 | -106.28439 | 37118 ft | 537 kts | 89° |
| 2026-05-04 04:19 | 38.01225 | -106.19023 | 37120 ft | 538 kts | 89° |
| 2026-05-04 04:20 | 38.01214 | -106.09519 | 37121 ft | 538 kts | 89° |
| 2026-05-04 04:20 | 38.01196 | -106.00011 | 37121 ft | 539 kts | 89° |
| 2026-05-04 04:21 | 38.01172 | -105.90498 | 37122 ft | 539 kts | 90° |
| 2026-05-04 04:21 | 38.01141 | -105.80993 | 37122 ft | 540 kts | 90° |
| 2026-05-04 04:22 | 38.00860 | -105.71462 | 37105 ft | 540 kts | 92° |
| 2026-05-04 04:22 | 38.00557 | -105.62001 | 37095 ft | 540 kts | 91° |
| 2026-05-04 04:23 | 38.00249 | -105.52497 | 37087 ft | 539 kts | 92° |
| 2026-05-04 04:23 | 37.99932 | -105.42966 | 37078 ft | 539 kts | 92° |
| 2026-05-04 04:24 | 37.99610 | -105.33478 | 37066 ft | 538 kts | 92° |
| 2026-05-04 04:24 | 37.99282 | -105.24035 | 37047 ft | 538 kts | 91° |
| 2026-05-04 04:25 | 37.98944 | -105.14573 | 37025 ft | 538 kts | 91° |
| 2026-05-04 04:25 | 37.98600 | -105.05100 | 37012 ft | 536 kts | 91° |
| 2026-05-04 04:26 | 37.98252 | -104.95761 | 36968 ft | 531 kts | 91° |
| 2026-05-04 04:26 | 37.97897 | -104.86418 | 36962 ft | 531 kts | 91° |
| 2026-05-04 04:27 | 37.97534 | -104.77058 | 36958 ft | 531 kts | 92° |
| 2026-05-04 04:27 | 37.97163 | -104.67698 | 36955 ft | 530 kts | 92° |
| 2026-05-04 04:28 | 37.96786 | -104.58349 | 36953 ft | 530 kts | 92° |
| 2026-05-04 04:28 | 37.96402 | -104.49045 | 36943 ft | 533 kts | 92° |
| 2026-05-04 04:29 | 37.96009 | -104.39666 | 36944 ft | 533 kts | 92° |
| 2026-05-04 04:29 | 37.95609 | -104.30317 | 36924 ft | 529 kts | 92° |
| 2026-05-04 04:30 | 37.95203 | -104.21010 | 36918 ft | 529 kts | 92° |
| 2026-05-04 04:30 | 37.94790 | -104.11704 | 36879 ft | 529 kts | 92° |
| 2026-05-04 04:31 | 37.94373 | -104.02456 | 36877 ft | 528 kts | 92° |
| 2026-05-04 04:31 | 37.93946 | -103.93158 | 36877 ft | 528 kts | 92° |
| 2026-05-04 04:32 | 37.93510 | -103.83847 | 36877 ft | 528 kts | 92° |
| 2026-05-04 04:32 | 37.93074 | -103.74620 | 36876 ft | 528 kts | 92° |
| 2026-05-04 04:33 | 37.92627 | -103.65321 | 36876 ft | 528 kts | 92° |
| 2026-05-04 04:33 | 37.92703 | -103.56054 | 36870 ft | 526 kts | 84° |
| 2026-05-04 04:34 | 37.93200 | -103.46782 | 36873 ft | 526 kts | 84° |
| 2026-05-04 04:34 | 37.93708 | -103.37570 | 36872 ft | 526 kts | 84° |
| 2026-05-04 04:35 | 37.94213 | -103.28304 | 36870 ft | 525 kts | 84° |
| 2026-05-04 04:35 | 37.94705 | -103.19131 | 36867 ft | 525 kts | 84° |
| 2026-05-04 04:36 | 37.95193 | -103.09896 | 36862 ft | 524 kts | 84° |
| 2026-05-04 04:36 | 37.95673 | -103.00678 | 36857 ft | 523 kts | 84° |
| 2026-05-04 04:37 | 37.96608 | -102.82314 | 36850 ft | 521 kts | 84° |
| 2026-05-04 04:38 | 37.97062 | -102.73189 | 36849 ft | 521 kts | 84° |
| 2026-05-04 04:38 | 37.97510 | -102.64027 | 36849 ft | 521 kts | 84° |
| 2026-05-04 04:39 | 37.97953 | -102.54830 | 36849 ft | 521 kts | 84° |
| 2026-05-04 04:39 | 37.98388 | -102.45660 | 36850 ft | 522 kts | 84° |
| 2026-05-04 04:40 | 37.98816 | -102.36515 | 36852 ft | 522 kts | 84° |
| 2026-05-04 04:40 | 37.99202 | -102.27319 | 36854 ft | 522 kts | 85° |
| 2026-05-04 04:41 | 37.99583 | -102.18085 | 36857 ft | 523 kts | 85° |
| 2026-05-04 04:41 | 37.99958 | -102.08829 | 36841 ft | 530 kts | 84° |
| 2026-05-04 04:42 | 38.00331 | -101.99432 | 36848 ft | 536 kts | 84° |
| 2026-05-04 04:42 | 38.00693 | -101.90112 | 36836 ft | 529 kts | 84° |
| 2026-05-04 04:43 | 38.01049 | -101.80782 | 36837 ft | 529 kts | 84° |
| 2026-05-04 04:43 | 38.01397 | -101.71468 | 36837 ft | 528 kts | 84° |
| 2026-05-04 04:44 | 38.01736 | -101.62182 | 36836 ft | 526 kts | 84° |
| 2026-05-04 04:44 | 38.02067 | -101.52928 | 36835 ft | 525 kts | 85° |
| 2026-05-04 04:45 | 38.02388 | -101.43747 | 36816 ft | 521 kts | 85° |
| 2026-05-04 04:47 | 38.03449 | -101.11851 | 36820 ft | 515 kts | 85° |
| 2026-05-04 04:47 | 38.03734 | -101.02775 | 36819 ft | 514 kts | 85° |
| 2026-05-04 04:48 | 38.04013 | -100.93696 | 36818 ft | 514 kts | 85° |
| 2026-05-04 04:49 | 38.04678 | -100.71049 | 36817 ft | 513 kts | 85° |
| 2026-05-04 04:49 | 38.04932 | -100.61999 | 36817 ft | 513 kts | 86° |
| 2026-05-04 04:50 | 38.05177 | -100.52995 | 36817 ft | 514 kts | 86° |
| 2026-05-04 04:50 | 38.05417 | -100.43925 | 36818 ft | 514 kts | 86° |
| 2026-05-04 04:51 | 38.05651 | -100.34838 | 36818 ft | 514 kts | 86° |
| 2026-05-04 04:51 | 38.05876 | -100.25827 | 36814 ft | 512 kts | 86° |
| 2026-05-04 04:52 | 38.06095 | -100.16782 | 36815 ft | 512 kts | 86° |
| 2026-05-04 04:52 | 38.06306 | -100.07745 | 36815 ft | 512 kts | 86° |
| 2026-05-04 04:53 | 38.06511 | -99.98718 | 36815 ft | 512 kts | 86° |
| 2026-05-04 04:53 | 38.06707 | -99.89748 | 36815 ft | 511 kts | 86° |
| 2026-05-04 04:54 | 38.06898 | -99.80722 | 36787 ft | 511 kts | 86° |
| 2026-05-04 04:54 | 38.07082 | -99.71673 | 36791 ft | 511 kts | 86° |
| 2026-05-04 04:55 | 38.07257 | -99.62716 | 36799 ft | 510 kts | 86° |
| 2026-05-04 04:55 | 38.07427 | -99.53719 | 36802 ft | 509 kts | 86° |
| 2026-05-04 04:56 | 38.07589 | -99.44732 | 36804 ft | 508 kts | 86° |
| 2026-05-04 04:56 | 38.07743 | -99.35821 | 36807 ft | 507 kts | 86° |
| 2026-05-04 04:57 | 38.07891 | -99.26870 | 36810 ft | 507 kts | 86° |
| 2026-05-04 04:57 | 38.08033 | -99.17904 | 36812 ft | 506 kts | 87° |
| 2026-05-04 04:58 | 38.08167 | -99.09018 | 36813 ft | 506 kts | 87° |
| 2026-05-04 04:58 | 38.08294 | -99.00108 | 36816 ft | 504 kts | 87° |
| 2026-05-04 04:59 | 38.08414 | -98.91192 | 36813 ft | 504 kts | 87° |
| 2026-05-04 04:59 | 38.08528 | -98.82286 | 36816 ft | 504 kts | 87° |
| 2026-05-04 05:00 | 38.08637 | -98.73401 | 36816 ft | 504 kts | 87° |
| 2026-05-04 05:01 | 38.08788 | -98.60082 | 36817 ft | 505 kts | 87° |
| 2026-05-04 05:01 | 38.08881 | -98.51156 | 36817 ft | 505 kts | 87° |
| 2026-05-04 05:02 | 38.08967 | -98.42235 | 36817 ft | 505 kts | 88° |
| 2026-05-04 05:02 | 38.08844 | -98.33372 | 36815 ft | 505 kts | 89° |
| 2026-05-04 05:03 | 38.08722 | -98.24446 | 36816 ft | 504 kts | 89° |
| 2026-05-04 05:04 | 38.08467 | -98.06676 | 36818 ft | 503 kts | 89° |
| 2026-05-04 05:04 | 38.08329 | -97.97805 | 36819 ft | 503 kts | 89° |
| 2026-05-04 05:06 | 38.07714 | -97.62299 | 36837 ft | 503 kts | 90° |
| 2026-05-04 05:07 | 38.07543 | -97.53428 | 36846 ft | 503 kts | 90° |
| 2026-05-04 05:07 | 38.07367 | -97.44601 | 36846 ft | 503 kts | 90° |
| 2026-05-04 05:09 | 38.06521 | -97.06140 | 36847 ft | 503 kts | 90° |
| 2026-05-04 05:10 | 38.06309 | -96.97318 | 36847 ft | 503 kts | 90° |
| 2026-05-04 05:10 | 38.06089 | -96.88423 | 36847 ft | 504 kts | 90° |
| 2026-05-04 05:11 | 38.05862 | -96.79534 | 36847 ft | 504 kts | 90° |
| 2026-05-04 05:11 | 38.05628 | -96.70612 | 36846 ft | 504 kts | 90° |
| 2026-05-04 05:12 | 38.05391 | -96.61817 | 36835 ft | 502 kts | 90° |
| 2026-05-04 05:12 | 38.05145 | -96.52964 | 36832 ft | 501 kts | 90° |
| 2026-05-04 05:13 | 38.04893 | -96.44116 | 36819 ft | 499 kts | 90° |